createdAt,value
2022-09-22T00:04:38.361Z,4.40
2022-09-22T00:09:38.325Z,4.90
2022-09-22T00:14:38.758Z,4.50
2022-09-22T00:19:38.454Z,4.80
2022-09-22T00:24:38.372Z,5.90
2022-09-22T00:29:38.697Z,5.60
2022-09-22T00:34:38.306Z,6.20
2022-09-22T00:39:38.360Z,4.90
2022-09-22T00:44:40.259Z,5.00
2022-09-22T00:49:45.611Z,4.90
2022-09-22T00:54:38.656Z,4.80
2022-09-22T00:59:40.196Z,4.70
2022-09-22T01:04:40.169Z,4.40
2022-09-22T01:09:38.410Z,5.10
2022-09-22T01:14:54.651Z,4.20
2022-09-22T01:19:58.300Z,4.50
2022-09-22T01:24:47.476Z,4.20
2022-09-22T01:29:57.103Z,4.40
2022-09-22T01:34:45.854Z,4.70
2022-09-22T01:39:42.577Z,5.10
2022-09-22T01:44:44.631Z,4.50
2022-09-22T01:49:44.755Z,5.30
2022-09-22T01:54:44.432Z,5.40
2022-09-22T01:59:42.141Z,5.30
2022-09-22T02:04:44.735Z,5.90
2022-09-22T02:09:41.172Z,6.40
2022-09-22T02:14:38.729Z,6.40
2022-09-22T02:19:40.755Z,6.50
2022-09-22T02:24:40.643Z,6.40
2022-09-22T02:29:42.432Z,6.70
2022-09-22T02:34:38.697Z,6.80
2022-09-22T02:39:44.859Z,6.60
2022-09-22T02:44:46.870Z,6.40
2022-09-22T02:49:40.661Z,7.30
2022-09-22T02:54:38.615Z,6.90
2022-09-22T02:59:38.283Z,7.90
2022-09-22T03:04:38.559Z,8.80
2022-09-22T03:09:38.479Z,9.00
2022-09-22T03:14:38.246Z,9.20
2022-09-22T03:19:38.284Z,9.60
2022-09-22T03:24:38.511Z,9.60
2022-09-22T03:29:38.591Z,9.30
2022-09-22T03:34:38.210Z,9.50
2022-09-22T03:39:38.407Z,10.10
2022-09-22T03:44:38.776Z,9.70
2022-09-22T03:49:38.401Z,10.30
2022-09-22T03:54:38.955Z,10.60
2022-09-22T03:59:38.546Z,10.50
2022-09-22T04:04:38.382Z,10.50
2022-09-22T04:09:39.047Z,10.10
2022-09-22T04:14:39.310Z,10.80
2022-09-22T04:19:40.224Z,9.90
2022-09-22T04:24:38.274Z,10.40
2022-09-22T04:29:38.335Z,10.00
2022-09-22T04:34:38.172Z,9.90
2022-09-22T04:39:38.694Z,9.20
2022-09-22T04:44:38.420Z,8.70
2022-09-22T04:49:38.574Z,9.60
2022-09-22T04:54:38.439Z,8.80
2022-09-22T04:59:38.377Z,8.20
2022-09-22T05:04:38.140Z,8.80
2022-09-22T05:09:38.176Z,8.00
2022-09-22T05:14:38.886Z,8.20
2022-09-22T05:19:38.123Z,8.60
2022-09-22T05:24:41.468Z,8.00
2022-09-22T05:29:38.441Z,8.30
2022-09-22T05:34:38.249Z,8.40
2022-09-22T05:39:38.166Z,8.20
2022-09-22T05:44:38.590Z,8.60
2022-09-22T05:49:38.104Z,8.80
2022-09-22T05:54:38.345Z,9.10
2022-09-22T05:59:38.384Z,9.10
2022-09-22T06:04:38.111Z,8.60
2022-09-22T06:09:38.623Z,8.60
2022-09-22T06:14:38.338Z,8.30
2022-09-22T06:19:38.905Z,9.30
2022-09-22T06:24:38.063Z,9.10
2022-09-22T06:29:40.645Z,9.40
2022-09-22T06:34:38.288Z,10.20
2022-09-22T06:39:38.186Z,9.90
2022-09-22T06:44:39.080Z,9.20
2022-09-22T06:49:38.157Z,9.30
2022-09-22T06:54:41.329Z,9.60
2022-09-22T06:59:39.782Z,10.10
2022-09-22T07:04:38.238Z,9.30
2022-09-22T07:09:38.154Z,8.70
2022-09-22T07:14:38.184Z,8.50
2022-09-22T07:19:38.072Z,7.60
2022-09-22T07:24:38.313Z,8.30
2022-09-22T07:29:38.188Z,7.60
2022-09-22T07:34:38.168Z,8.60
2022-09-22T07:39:38.167Z,7.70
2022-09-22T07:44:48.211Z,7.30
2022-09-22T07:49:38.016Z,7.60
2022-09-22T07:54:38.850Z,6.80
2022-09-22T07:59:40.722Z,6.90
2022-09-22T08:04:38.107Z,6.80
2022-09-22T08:09:38.271Z,6.40
2022-09-22T08:14:38.150Z,6.80
2022-09-22T08:19:38.080Z,7.40
2022-09-22T08:24:38.223Z,4.70
2022-09-22T08:29:38.135Z,3.50
2022-09-22T08:34:38.074Z,3.60
2022-09-22T08:39:38.208Z,3.60
2022-09-22T08:44:46.158Z,3.40
2022-09-22T08:49:54.861Z,3.00
2022-09-22T08:54:37.987Z,2.70
2022-09-22T08:59:45.123Z,2.60
2022-09-22T09:04:57.891Z,2.80
2022-09-22T09:09:50.557Z,2.10
2022-09-22T09:14:53.846Z,2.90
2022-09-22T09:19:41.252Z,2.20
2022-09-22T09:29:46.900Z,1.80
2022-09-22T09:34:38.932Z,2.00
2022-09-22T09:39:40.116Z,1.70
2022-09-22T09:44:39.157Z,1.10
2022-09-22T09:49:38.121Z,1.60
2022-09-22T09:54:40.058Z,1.40
2022-09-22T09:59:50.251Z,1.30
2022-09-22T10:04:38.790Z,1.50
2022-09-22T10:09:39.411Z,1.50
2022-09-22T10:14:38.523Z,1.20
2022-09-22T10:19:38.165Z,1.40
2022-09-22T10:24:38.114Z,1.10
2022-09-22T10:29:41.209Z,1.20
2022-09-22T10:34:40.796Z,1.40
2022-09-22T10:39:43.824Z,1.90
2022-09-22T10:44:41.979Z,1.50
2022-09-22T10:49:52.376Z,1.60
2022-09-22T10:54:52.242Z,2.20
2022-09-22T10:59:57.075Z,1.40
2022-09-22T11:01:08.261Z,1.40
2022-09-22T11:04:49.014Z,3.60
2022-09-22T11:09:58.036Z,1.40
2022-09-22T11:15:00.140Z,1.30
2022-09-22T11:16:40.745Z,1.30
2022-09-22T11:19:50.288Z,1.20
2022-09-22T11:23:30.907Z,1.10
2022-09-22T11:24:55.148Z,1.10
2022-09-22T11:30:01.406Z,1.70
2022-09-22T11:34:54.528Z,1.70
2022-09-22T11:39:46.816Z,2.00
2022-09-22T11:44:42.260Z,1.50
2022-09-22T11:49:49.807Z,1.70
2022-09-22T11:54:50.849Z,1.40
2022-09-22T11:59:45.694Z,1.70
2022-09-22T12:04:43.369Z,1.80
2022-09-22T12:09:42.891Z,1.60
2022-09-22T12:14:39.797Z,1.60
2022-09-22T12:19:52.474Z,1.70
2022-09-22T12:24:38.866Z,1.70
2022-09-22T12:29:38.603Z,2.10
2022-09-22T12:34:39.742Z,2.40
2022-09-22T12:39:41.006Z,2.00
2022-09-22T12:44:48.459Z,2.20
2022-09-22T12:49:47.043Z,2.40
2022-09-22T12:54:38.115Z,2.20
2022-09-22T12:59:53.455Z,2.10
2022-09-22T13:04:38.929Z,5.60
2022-09-22T13:09:38.018Z,2.40
2022-09-22T13:14:57.087Z,2.40
2022-09-22T13:19:54.250Z,2.40
2022-09-22T13:24:37.961Z,2.60
2022-09-22T13:29:38.994Z,2.40
2022-09-22T13:34:38.094Z,2.20
2022-09-22T13:39:46.250Z,2.50
2022-09-22T13:44:41.016Z,2.50
2022-09-22T13:49:41.299Z,2.30
2022-09-22T13:54:38.874Z,2.50
2022-09-22T13:59:40.832Z,2.40
2022-09-22T14:04:48.357Z,2.60
2022-09-22T14:09:38.753Z,2.00
2022-09-22T14:14:39.213Z,2.00
2022-09-22T14:19:41.982Z,1.90
2022-09-22T14:24:44.904Z,2.10
2022-09-22T14:29:39.198Z,2.10
2022-09-22T14:34:38.642Z,2.00
2022-09-22T14:39:40.566Z,1.90
2022-09-22T14:44:43.099Z,2.40
2022-09-22T14:49:40.202Z,2.00
2022-09-22T14:54:38.701Z,1.80
2022-09-22T14:59:48.071Z,2.00
2022-09-22T15:04:40.642Z,1.60
2022-09-22T15:09:41.622Z,2.20
2022-09-22T15:14:41.815Z,2.60
2022-09-22T15:19:37.619Z,2.00
2022-09-22T15:24:38.370Z,2.30
2022-09-22T15:29:37.974Z,2.10
2022-09-22T15:34:43.762Z,2.60
2022-09-22T15:39:37.801Z,1.90
2022-09-22T15:44:37.871Z,1.90
2022-09-22T15:49:38.199Z,1.70
2022-09-22T15:54:37.785Z,2.10
2022-09-22T15:59:38.750Z,1.50
2022-09-22T16:04:38.265Z,2.30
2022-09-22T16:09:37.860Z,2.00
2022-09-22T16:14:40.540Z,1.90
2022-09-22T16:19:38.058Z,1.60
2022-09-22T16:24:37.883Z,2.10
2022-09-22T16:29:37.907Z,1.80
2022-09-22T16:34:37.764Z,3.30
2022-09-22T16:39:38.030Z,2.00
2022-09-22T16:44:37.835Z,1.70
2022-09-22T16:49:40.092Z,2.40
2022-09-22T16:54:38.058Z,2.00
2022-09-22T16:59:37.810Z,2.20
2022-09-22T17:04:37.826Z,2.70
2022-09-22T17:09:37.757Z,2.70
2022-09-22T17:14:40.387Z,2.50
2022-09-22T17:19:37.734Z,3.20
2022-09-22T17:24:38.010Z,3.40
2022-09-22T17:29:37.807Z,3.60
2022-09-22T17:34:37.849Z,3.60
2022-09-22T17:39:37.730Z,3.40
2022-09-22T17:44:37.802Z,3.30
2022-09-22T17:49:47.451Z,4.30
2022-09-22T17:49:58.112Z,4.30
2022-09-22T17:54:49.568Z,4.20
2022-09-22T17:59:39.852Z,5.10
2022-09-22T18:04:38.503Z,5.30
2022-09-22T18:09:40.418Z,5.70
2022-09-22T18:14:43.301Z,6.00
2022-09-22T18:19:38.931Z,5.80
2022-09-22T18:24:37.901Z,12.80
2022-09-22T18:29:37.785Z,28.90
2022-09-22T18:34:38.384Z,8.10
2022-09-22T18:39:39.742Z,11.80
2022-09-22T18:44:38.339Z,150.80
2022-09-22T18:49:40.418Z,141.50
2022-09-22T18:54:38.925Z,52.10
2022-09-22T18:59:38.556Z,50.10
2022-09-22T19:04:38.321Z,66.30
2022-09-22T19:09:39.151Z,86.60
2022-09-22T19:14:38.795Z,76.60
2022-09-22T19:19:42.141Z,65.20
2022-09-22T19:24:39.692Z,63.10
2022-09-22T19:29:37.913Z,45.20
2022-09-22T19:34:37.887Z,26.70
2022-09-22T19:39:38.038Z,18.70
2022-09-22T19:44:39.176Z,10.10
2022-09-22T19:49:39.813Z,8.70
2022-09-22T19:54:37.779Z,10.90
2022-09-22T19:59:37.862Z,9.40
2022-09-22T20:04:38.336Z,8.40
2022-09-22T20:09:38.331Z,8.10
2022-09-22T20:14:37.612Z,7.10
2022-09-22T20:19:37.779Z,7.60
2022-09-22T20:24:37.813Z,6.90
2022-09-22T20:29:37.668Z,6.80
2022-09-22T20:34:38.230Z,6.20
2022-09-22T20:39:38.013Z,6.00
2022-09-22T20:44:37.767Z,6.00
2022-09-22T20:49:40.449Z,5.00
2022-09-22T20:54:37.621Z,4.90
2022-09-22T20:59:38.071Z,5.10
2022-09-22T21:04:37.701Z,4.80
2022-09-22T21:09:47.557Z,5.60
2022-09-22T21:14:37.596Z,6.40
2022-09-22T21:19:37.651Z,7.20
2022-09-22T21:24:38.357Z,7.80
2022-09-22T21:29:37.633Z,6.70
2022-09-22T21:34:37.705Z,7.10
2022-09-22T21:39:37.606Z,7.90
2022-09-22T21:44:38.231Z,8.70
2022-09-22T21:49:37.564Z,10.10
2022-09-22T21:54:37.517Z,9.40
2022-09-22T21:59:37.522Z,9.40
2022-09-22T22:04:38.386Z,8.60
2022-09-22T22:09:37.515Z,9.40
2022-09-22T22:14:38.652Z,9.10
2022-09-22T22:19:37.527Z,8.80
2022-09-22T22:24:39.842Z,8.90
2022-09-22T22:29:37.881Z,8.60
2022-09-22T22:34:37.680Z,8.40
2022-09-22T22:39:37.480Z,8.40
2022-09-22T22:44:37.537Z,8.20
2022-09-22T22:49:37.481Z,8.00
2022-09-22T22:54:37.480Z,7.70
2022-09-22T22:59:37.466Z,7.20
2022-09-22T23:04:38.440Z,7.20
2022-09-22T23:09:37.442Z,7.40
2022-09-22T23:14:37.475Z,7.80
2022-09-22T23:19:37.763Z,7.10
2022-09-22T23:24:38.496Z,7.40
2022-09-22T23:29:37.825Z,7.60
2022-09-22T23:34:37.469Z,7.20
2022-09-22T23:39:37.457Z,7.40
2022-09-22T23:44:37.431Z,7.90
2022-09-22T23:49:37.467Z,7.80
2022-09-22T23:54:37.462Z,7.90
2022-09-22T23:59:37.428Z,7.20
